createdAt,value
2022-10-19T00:00:00.387Z,96148.69
2022-10-19T00:02:46.141Z,96144.66
2022-10-19T00:05:31.879Z,96136.03
2022-10-19T00:08:17.602Z,96137.97
2022-10-19T00:11:03.446Z,96138.78
2022-10-19T00:13:49.435Z,96135.53
2022-10-19T00:16:37.707Z,96127.75
2022-10-19T00:19:25.911Z,96136.34
2022-10-19T00:22:13.919Z,96138.25
2022-10-19T00:24:59.768Z,96122.09
2022-10-19T00:27:45.488Z,96121.56
2022-10-19T00:30:31.462Z,96118.09
2022-10-19T00:33:23.644Z,96116.72
2022-10-19T00:36:26.146Z,96113.25
2022-10-19T00:39:14.458Z,96110.78
2022-10-19T00:42:00.355Z,96105.97
2022-10-19T00:44:49.299Z,96108.69
2022-10-19T00:47:35.898Z,96103.03
2022-10-19T00:50:22.659Z,96058.75
2022-10-19T00:53:09.426Z,96102.22
2022-10-19T00:55:55.926Z,96088.81
2022-10-19T00:58:43.631Z,96091.50
2022-10-19T01:01:29.615Z,96094.19
2022-10-19T01:04:15.803Z,96091.78
2022-10-19T01:07:03.598Z,96093.13
2022-10-19T01:09:49.242Z,96096.34
2022-10-19T01:12:52.390Z,96090.97
2022-10-19T01:15:44.528Z,96083.97
2022-10-19T01:18:34.220Z,96086.13
2022-10-19T01:21:29.469Z,96082.91
2022-10-19T01:24:42.199Z,96083.97
2022-10-19T01:27:48.003Z,96080.25
2022-10-19T01:30:36.741Z,96079.44
2022-10-19T01:33:35.714Z,96059.84
2022-10-19T01:36:29.248Z,96075.94
2022-10-19T01:39:28.324Z,96071.94
2022-10-19T01:42:14.054Z,96075.16
2022-10-19T01:44:59.737Z,96074.91
2022-10-19T01:47:50.473Z,96071.13
2022-10-19T01:50:43.705Z,96075.47
2022-10-19T01:53:33.470Z,96075.47
2022-10-19T01:56:22.327Z,96068.22
2022-10-19T01:59:09.780Z,96069.56
2022-10-19T02:01:55.995Z,96061.25
2022-10-19T02:04:42.179Z,96055.66
2022-10-19T02:07:28.230Z,96049.19
2022-10-19T02:13:05.577Z,96063.72
2022-10-19T02:15:53.361Z,96068.28
2022-10-19T02:18:42.269Z,96047.59
2022-10-19T02:21:28.375Z,96066.38
2022-10-19T02:24:14.343Z,96060.50
2022-10-19T02:27:01.790Z,96044.38
2022-10-19T02:29:47.589Z,96058.88
2022-10-19T02:32:33.661Z,96071.25
2022-10-19T02:35:19.607Z,96035.25
2022-10-19T02:38:06.248Z,96056.19
2022-10-19T02:41:05.520Z,96053.00
2022-10-19T02:43:56.261Z,96041.97
2022-10-19T02:46:58.792Z,96049.22
2022-10-19T02:49:45.370Z,96052.44
2022-10-19T02:52:31.121Z,96049.50
2022-10-19T02:55:16.995Z,96065.88
2022-10-19T02:58:03.066Z,96055.69
2022-10-19T03:00:49.086Z,96069.63
2022-10-19T03:03:35.157Z,96051.66
2022-10-19T03:06:20.777Z,96068.56
2022-10-19T03:09:06.721Z,96077.69
2022-10-19T03:11:52.790Z,96066.44
2022-10-19T03:14:38.795Z,96073.97
2022-10-19T03:17:24.478Z,96065.91
2022-10-19T03:20:11.095Z,96071.00
2022-10-19T03:22:57.118Z,96071.81
2022-10-19T03:25:42.845Z,96066.97
2022-10-19T03:28:29.129Z,96068.84
2022-10-19T03:31:15.238Z,96072.88
2022-10-19T03:34:02.107Z,96071.28
2022-10-19T03:36:47.715Z,96066.97
2022-10-19T03:39:33.438Z,96058.38
2022-10-19T03:42:19.490Z,96073.94
2022-10-19T03:45:05.790Z,96057.31
2022-10-19T03:47:52.208Z,96076.66
2022-10-19T03:50:38.299Z,96071.81
2022-10-19T03:53:24.005Z,96073.94
2022-10-19T03:56:18.144Z,96082.53
2022-10-19T03:59:05.428Z,96076.66
2022-10-19T04:01:51.385Z,96074.47
2022-10-19T04:04:37.213Z,96068.59
2022-10-19T04:07:23.105Z,96070.19
2022-10-19T04:10:08.995Z,96076.06
2022-10-19T04:12:54.898Z,96076.59
2022-10-19T04:15:40.554Z,96075.53
2022-10-19T04:18:26.413Z,96074.44
2022-10-19T04:21:32.121Z,96083.84
2022-10-19T04:24:19.017Z,96066.13
2022-10-19T04:27:04.705Z,96072.84
2022-10-19T04:29:50.416Z,96058.06
2022-10-19T04:32:36.117Z,96067.44
2022-10-19T04:35:21.930Z,96073.34
2022-10-19T04:38:07.594Z,96068.53
2022-10-19T04:40:53.306Z,96072.78
2022-10-19T04:43:39.377Z,96066.63
2022-10-19T04:46:26.250Z,96070.13
2022-10-19T04:49:14.147Z,96077.63
2022-10-19T04:52:03.529Z,96075.19
2022-10-19T04:54:49.342Z,96077.59
2022-10-19T04:57:35.353Z,96077.03
2022-10-19T05:00:21.622Z,96070.34
2022-10-19T05:03:07.365Z,96070.31
2022-10-19T05:05:52.999Z,96070.84
2022-10-19T05:08:39.225Z,96066.28
2022-10-19T05:11:25.485Z,96066.28
2022-10-19T05:14:11.328Z,96066.84
2022-10-19T05:16:56.935Z,96062.28
2022-10-19T05:19:42.885Z,96052.84
2022-10-19T05:22:28.654Z,96067.63
2022-10-19T05:25:14.469Z,96066.84
2022-10-19T05:28:00.208Z,96055.00
2022-10-19T05:30:48.948Z,96060.38
2022-10-19T05:33:35.512Z,96066.28
2022-10-19T05:36:28.017Z,96060.91
2022-10-19T05:39:16.970Z,96064.97
2022-10-19T05:42:02.765Z,96064.66
2022-10-19T05:44:48.709Z,96063.59
2022-10-19T05:47:34.962Z,96055.56
2022-10-19T05:50:24.596Z,96061.75
2022-10-19T05:53:10.365Z,96063.13
2022-10-19T05:55:56.265Z,96065.78
2022-10-19T05:58:42.498Z,96071.97
2022-10-19T06:01:29.754Z,96069.84
2022-10-19T06:07:03.096Z,96078.16
2022-10-19T06:09:48.971Z,96073.31
2022-10-19T06:12:34.978Z,96066.34
2022-10-19T06:15:20.672Z,96075.50
2022-10-19T06:18:07.901Z,96081.13
2022-10-19T06:20:54.818Z,96075.50
2022-10-19T06:26:34.396Z,96076.06
2022-10-19T06:29:20.050Z,96081.47
2022-10-19T06:32:06.032Z,96079.84
2022-10-19T06:34:55.738Z,96076.06
2022-10-19T06:37:42.999Z,96077.16
2022-10-19T06:40:28.832Z,96083.06
2022-10-19T06:43:15.869Z,96092.19
2022-10-19T06:46:06.420Z,96086.84
2022-10-19T06:49:00.024Z,96086.84
2022-10-19T06:51:45.933Z,96092.75
2022-10-19T06:54:31.780Z,96083.09
2022-10-19T06:57:17.994Z,96080.41
2022-10-19T07:00:05.731Z,96089.00
2022-10-19T07:02:51.620Z,96082.53
2022-10-19T07:05:37.396Z,96079.00
2022-10-19T07:08:23.282Z,96083.09
2022-10-19T07:11:11.984Z,96067.75
2022-10-19T07:13:57.979Z,96075.78
2022-10-19T07:16:43.565Z,96070.66
2022-10-19T07:19:29.264Z,96070.09
2022-10-19T07:22:20.358Z,96069.78
2022-10-19T07:25:09.975Z,96081.88
2022-10-19T07:27:56.205Z,96075.94
2022-10-19T07:30:41.974Z,96075.66
2022-10-19T07:33:29.023Z,96072.41
2022-10-19T07:36:15.119Z,96060.78
2022-10-19T07:39:02.348Z,96062.06
2022-10-19T07:41:48.370Z,96062.00
2022-10-19T07:44:34.119Z,96061.19
2022-10-19T07:47:20.314Z,96060.03
2022-10-19T07:50:06.502Z,96056.19
2022-10-19T07:52:52.853Z,96056.69
2022-10-19T07:55:38.871Z,96051.81
2022-10-19T07:58:24.461Z,96051.72
2022-10-19T08:01:18.852Z,96044.66
2022-10-19T08:07:10.929Z,96035.84
2022-10-19T08:09:57.003Z,96030.34
2022-10-19T08:12:43.092Z,96035.59
2022-10-19T08:15:30.212Z,96028.41
2022-10-19T08:18:19.417Z,96024.47
2022-10-19T08:21:05.406Z,96037.16
2022-10-19T08:23:51.517Z,96025.56
2022-10-19T08:26:38.963Z,96030.69
2022-10-19T08:29:26.597Z,96025.59
2022-10-19T08:32:14.952Z,96030.88
2022-10-19T08:35:00.710Z,96026.00
2022-10-19T08:37:46.742Z,96031.88
2022-10-19T08:40:32.777Z,96029.09
2022-10-19T08:43:32.958Z,96027.94
2022-10-19T08:46:53.892Z,96035.78
2022-10-19T08:49:39.854Z,96020.91
2022-10-19T08:52:41.908Z,96027.63
2022-10-19T08:56:00.869Z,96020.00
2022-10-19T08:59:06.341Z,96019.31
2022-10-19T09:01:58.520Z,96013.69
2022-10-19T09:05:10.071Z,96013.34
2022-10-19T09:07:55.999Z,96009.50
2022-10-19T09:10:44.589Z,96010.56
2022-10-19T09:14:04.356Z,96015.59
2022-10-19T09:17:01.853Z,96002.69
2022-10-19T09:19:47.744Z,96006.22
2022-10-19T09:22:35.274Z,96001.16
2022-10-19T09:25:22.683Z,96003.88
2022-10-19T09:28:21.761Z,95995.22
2022-10-19T09:31:13.641Z,96003.84
2022-10-19T09:34:12.225Z,95993.38
2022-10-19T09:36:59.240Z,95984.72
2022-10-19T09:39:52.344Z,95976.97
2022-10-19T09:42:42.396Z,95990.34
2022-10-19T09:45:46.458Z,95982.53
2022-10-19T09:48:52.723Z,95970.06
2022-10-19T09:51:53.016Z,95972.34
2022-10-19T09:54:39.622Z,95964.50
2022-10-19T09:57:25.972Z,95966.44
2022-10-19T10:00:24.390Z,95961.41
2022-10-19T10:03:27.789Z,95955.88
2022-10-19T10:06:17.613Z,95953.41
2022-10-19T10:09:03.933Z,95943.59
2022-10-19T10:11:51.104Z,95938.56
2022-10-19T10:14:40.929Z,95938.19
2022-10-19T10:17:30.587Z,95932.78
2022-10-19T10:20:23.621Z,95928.97
2022-10-19T10:23:24.810Z,95926.31
2022-10-19T10:26:20.012Z,95911.34
2022-10-19T10:29:24.281Z,95906.59
2022-10-19T10:32:14.218Z,95911.19
2022-10-19T10:35:02.123Z,95898.53
2022-10-19T10:37:48.608Z,95898.47
2022-10-19T10:40:34.747Z,95897.16
2022-10-19T10:43:30.172Z,95897.38
2022-10-19T10:46:21.265Z,95883.34
2022-10-19T10:49:08.797Z,95882.78
2022-10-19T10:52:00.766Z,95870.72
2022-10-19T10:55:21.174Z,95873.56
2022-10-19T10:58:18.769Z,95872.56
2022-10-19T11:01:08.050Z,95860.31
2022-10-19T11:04:11.972Z,95856.00
2022-10-19T11:07:20.707Z,95861.19
2022-10-19T11:10:49.941Z,95854.47
2022-10-19T11:13:56.098Z,95849.72
2022-10-19T11:16:47.067Z,95843.94
2022-10-19T11:19:41.254Z,95840.03
2022-10-19T11:22:35.327Z,95830.72
2022-10-19T11:25:26.808Z,95842.44
2022-10-19T11:28:55.065Z,95829.53
2022-10-19T11:31:45.950Z,95835.06
2022-10-19T11:34:37.898Z,95834.72
2022-10-19T11:38:18.215Z,95819.47
2022-10-19T11:41:17.421Z,95830.00
2022-10-19T11:44:22.712Z,95825.44
2022-10-19T11:47:34.010Z,95816.84
2022-10-19T11:50:32.471Z,95827.59
2022-10-19T11:53:18.014Z,95817.00
2022-10-19T11:56:08.537Z,95808.31
2022-10-19T11:59:14.892Z,95811.00
2022-10-19T12:02:19.472Z,95802.31
2022-10-19T12:05:17.801Z,95802.97
2022-10-19T12:11:11.560Z,95797.03
2022-10-19T12:14:03.425Z,95786.47
2022-10-19T12:16:53.390Z,95789.56
2022-10-19T12:19:50.686Z,95790.09
2022-10-19T12:22:37.767Z,95775.03
2022-10-19T12:25:23.894Z,95778.16
2022-10-19T12:28:14.421Z,95780.44
2022-10-19T12:31:01.900Z,95776.28
2022-10-19T12:33:56.810Z,95765.91
2022-10-19T12:37:07.121Z,95759.19
2022-10-19T12:40:05.262Z,95768.81
2022-10-19T12:43:16.748Z,95762.69
2022-10-19T12:46:15.387Z,95756.44
2022-10-19T12:49:27.823Z,95761.13
2022-10-19T12:52:15.454Z,95763.69
2022-10-19T12:55:16.747Z,95748.56
2022-10-19T12:58:17.117Z,95751.66
2022-10-19T13:01:05.471Z,95741.47
2022-10-19T13:04:06.732Z,95742.69
2022-10-19T13:07:08.232Z,95747.50
2022-10-19T13:10:01.183Z,95745.13
2022-10-19T13:12:48.184Z,95741.19
2022-10-19T13:15:36.936Z,95748.41
2022-10-19T13:19:03.374Z,95738.34
2022-10-19T13:22:35.709Z,95737.84
2022-10-19T13:26:12.300Z,95740.97
2022-10-19T13:28:58.259Z,95738.28
2022-10-19T13:31:44.058Z,95736.25
2022-10-19T13:34:29.747Z,95739.56
2022-10-19T13:37:18.349Z,95742.94
2022-10-19T13:40:23.572Z,95739.72
2022-10-19T13:43:24.993Z,95740.94
2022-10-19T13:46:20.435Z,95732.91
2022-10-19T13:49:27.763Z,95730.66
2022-10-19T13:53:01.260Z,95736.25
2022-10-19T13:56:00.264Z,95747.03
2022-10-19T13:59:11.255Z,95739.13
2022-10-19T14:01:56.991Z,95739.81
2022-10-19T14:04:57.100Z,95741.41
2022-10-19T14:07:48.895Z,95733.53
2022-10-19T14:10:56.353Z,95730.66
2022-10-19T14:13:41.498Z,95731.31
2022-10-19T14:16:27.463Z,95736.81
2022-10-19T14:19:14.621Z,95729.56
2022-10-19T14:22:02.869Z,95729.91
2022-10-19T14:24:49.120Z,95730.06
2022-10-19T14:27:35.624Z,95722.16
2022-10-19T14:30:35.487Z,95714.16
2022-10-19T14:33:21.813Z,95719.94
2022-10-19T14:36:15.017Z,95728.22
2022-10-19T14:39:01.429Z,95711.44
2022-10-19T14:41:47.193Z,95726.84
2022-10-19T14:44:35.234Z,95733.41
2022-10-19T14:47:30.404Z,95725.66
2022-10-19T14:50:16.509Z,95726.06
2022-10-19T14:53:24.344Z,95717.75
2022-10-19T14:56:19.196Z,95725.53
2022-10-19T14:59:16.708Z,95716.72
2022-10-19T15:02:10.137Z,95714.56
2022-10-19T15:04:58.564Z,95722.69
2022-10-19T15:07:44.417Z,95733.50
2022-10-19T15:10:41.602Z,95741.19
2022-10-19T15:13:32.727Z,95733.47
2022-10-19T15:16:44.625Z,95751.28
2022-10-19T15:19:32.675Z,95747.50
2022-10-19T15:22:20.121Z,95752.75
2022-10-19T15:25:08.807Z,95751.75
2022-10-19T15:27:54.663Z,95762.44
2022-10-19T15:30:40.561Z,95762.19
2022-10-19T15:33:26.617Z,95760.38
2022-10-19T15:36:19.733Z,95758.16
2022-10-19T15:39:24.686Z,95764.56
2022-10-19T15:42:24.384Z,95778.00
2022-10-19T15:45:29.053Z,95776.50
2022-10-19T15:48:24.203Z,95776.22
2022-10-19T15:51:25.436Z,95785.34
2022-10-19T15:54:12.379Z,95785.78
2022-10-19T15:56:58.091Z,95788.72
2022-10-19T15:59:43.912Z,95785.75
2022-10-19T16:02:29.960Z,95797.66
2022-10-19T16:05:15.964Z,95797.41
2022-10-19T16:08:01.779Z,95790.91
2022-10-19T16:10:47.588Z,95790.66
2022-10-19T16:13:33.644Z,95801.03
2022-10-19T16:16:25.549Z,95810.59
2022-10-19T16:19:11.174Z,95812.34
2022-10-19T16:21:56.933Z,95751.19
2022-10-19T16:24:42.748Z,95819.31
2022-10-19T16:27:28.418Z,95827.00
2022-10-19T16:30:14.333Z,95831.50
2022-10-19T16:33:00.410Z,95836.00
2022-10-19T16:35:46.180Z,95842.91
2022-10-19T16:38:31.898Z,95842.69
2022-10-19T16:41:17.681Z,95844.09
2022-10-19T16:44:03.670Z,95854.84
2022-10-19T16:46:49.480Z,95860.94
2022-10-19T16:49:35.629Z,95857.66
2022-10-19T16:52:21.331Z,95860.63
2022-10-19T16:55:07.518Z,95869.03
2022-10-19T16:57:53.461Z,95872.03
2022-10-19T17:00:39.589Z,95877.31
2022-10-19T17:03:25.600Z,95876.41
2022-10-19T17:06:11.772Z,95872.75
2022-10-19T17:12:05.469Z,95877.56
2022-10-19T17:14:51.425Z,95874.19
2022-10-19T17:17:37.812Z,95882.84
2022-10-19T17:20:24.030Z,95884.13
2022-10-19T17:23:10.417Z,95883.31
2022-10-19T17:25:56.258Z,95893.34
2022-10-19T17:28:43.631Z,95900.63
2022-10-19T17:31:30.347Z,95904.06
2022-10-19T17:34:17.518Z,95883.34
2022-10-19T17:37:03.517Z,95898.69
2022-10-19T17:39:51.092Z,95891.75
2022-10-19T17:42:37.145Z,95901.09
2022-10-19T17:45:23.386Z,95901.09
2022-10-19T17:48:09.356Z,95912.72
2022-10-19T17:51:03.873Z,95904.75
2022-10-19T17:53:51.978Z,95901.50
2022-10-19T17:56:38.444Z,95906.88
2022-10-19T17:59:34.600Z,95906.75
2022-10-19T18:02:22.783Z,95907.44
2022-10-19T18:05:09.473Z,95908.13
2022-10-19T18:07:55.375Z,95908.81
2022-10-19T18:10:41.903Z,95918.81
2022-10-19T18:13:28.824Z,95916.06
2022-10-19T18:16:15.994Z,95928.84
2022-10-19T18:19:03.058Z,95928.72
2022-10-19T18:21:49.247Z,95936.44
2022-10-19T18:24:35.047Z,95930.75
2022-10-19T18:27:20.973Z,95943.03
2022-10-19T18:30:07.350Z,95939.16
2022-10-19T18:32:56.217Z,95938.84
2022-10-19T18:35:42.389Z,95934.50
2022-10-19T18:38:28.479Z,95936.34
2022-10-19T18:44:06.882Z,95936.13
2022-10-19T18:46:52.755Z,95939.31
2022-10-19T18:49:38.509Z,95937.03
2022-10-19T18:52:24.479Z,95940.91
2022-10-19T18:55:10.504Z,95947.28
2022-10-19T18:57:56.439Z,95950.47
2022-10-19T19:00:45.614Z,95951.28
2022-10-19T19:03:32.365Z,95945.00
2022-10-19T19:06:25.644Z,95950.47
2022-10-19T19:09:13.167Z,95952.75
2022-10-19T19:11:59.502Z,95955.94
2022-10-19T19:14:45.734Z,95966.88
2022-10-19T19:17:31.425Z,95960.47
2022-10-19T19:20:17.211Z,95964.34
2022-10-19T19:23:03.190Z,95969.81
2022-10-19T19:25:49.160Z,95978.00
2022-10-19T19:28:37.784Z,95975.28
2022-10-19T19:31:27.142Z,95979.16
2022-10-19T19:34:13.366Z,95985.44
2022-10-19T19:36:59.446Z,95988.50
2022-10-19T19:39:45.389Z,95997.13
2022-10-19T19:42:31.452Z,95990.09
2022-10-19T19:45:17.174Z,95999.84
2022-10-19T19:48:03.160Z,95988.81
2022-10-19T19:50:49.462Z,96006.91
2022-10-19T19:53:36.683Z,96004.19
2022-10-19T19:56:22.817Z,96017.03
2022-10-19T19:59:11.205Z,96011.47
2022-10-19T20:01:57.179Z,96017.41
2022-10-19T20:04:43.234Z,96011.69
2022-10-19T20:07:29.596Z,96017.28
2022-10-19T20:10:16.261Z,96022.59
2022-10-19T20:13:02.319Z,96018.59
2022-10-19T20:15:48.043Z,96031.03
2022-10-19T20:18:34.012Z,96038.75
2022-10-19T20:21:23.649Z,96031.22
2022-10-19T20:24:09.991Z,96033.94
2022-10-19T20:26:57.103Z,96037.81
2022-10-19T20:29:43.379Z,96025.19
2022-10-19T20:32:29.920Z,96026.00
2022-10-19T20:35:16.154Z,96031.78
2022-10-19T20:38:03.847Z,96035.19
2022-10-19T20:40:49.827Z,96036.16
2022-10-19T20:43:37.119Z,96037.66
2022-10-19T20:46:26.330Z,96042.50
2022-10-19T20:49:12.770Z,96030.69
2022-10-19T20:51:58.917Z,96037.13
2022-10-19T20:54:45.051Z,96038.91
2022-10-19T20:57:31.064Z,96031.75
2022-10-19T21:00:17.252Z,96037.06
2022-10-19T21:03:03.470Z,96046.25
2022-10-19T21:05:49.449Z,96035.22
2022-10-19T21:08:36.234Z,96046.31
2022-10-19T21:11:27.606Z,96041.88
2022-10-19T21:14:15.572Z,96040.59
2022-10-19T21:17:01.561Z,96037.69
2022-10-19T21:19:47.397Z,96039.50
2022-10-19T21:22:39.064Z,96042.88
2022-10-19T21:25:25.298Z,96048.19
2022-10-19T21:28:11.118Z,96046.13
2022-10-19T21:30:57.070Z,96050.78
2022-10-19T21:33:43.395Z,96048.03
2022-10-19T21:36:30.220Z,96053.38
2022-10-19T21:39:16.694Z,96042.31
2022-10-19T21:42:02.731Z,96047.97
2022-10-19T21:44:51.419Z,96046.81
2022-10-19T21:47:40.113Z,96046.72
2022-10-19T21:50:26.084Z,96047.34
2022-10-19T21:53:12.077Z,96044.03
2022-10-19T21:55:59.482Z,96060.41
2022-10-19T21:58:50.096Z,96053.50
2022-10-19T22:01:40.157Z,96049.88
2022-10-19T22:04:27.435Z,96054.63
2022-10-19T22:07:13.420Z,96069.38
2022-10-19T22:09:59.130Z,96066.66
2022-10-19T22:12:44.963Z,96064.25
2022-10-19T22:15:30.849Z,96061.22
2022-10-19T22:18:16.481Z,96051.31
2022-10-19T22:21:08.488Z,96063.94
2022-10-19T22:24:00.456Z,96053.03
2022-10-19T22:26:48.145Z,96049.06
2022-10-19T22:29:34.231Z,96045.84
2022-10-19T22:32:22.030Z,96052.75
2022-10-19T22:35:08.004Z,96049.75
2022-10-19T22:37:53.951Z,96057.94
2022-10-19T22:40:39.547Z,96051.84
2022-10-19T22:43:25.387Z,96064.66
2022-10-19T22:46:11.178Z,96062.59
2022-10-19T22:48:56.883Z,96066.31
2022-10-19T22:51:42.542Z,96075.13
2022-10-19T22:54:28.246Z,96077.25
2022-10-19T22:57:14.219Z,96076.28
2022-10-19T23:00:00.275Z,96075.31
2022-10-19T23:02:46.049Z,96077.59
2022-10-19T23:05:32.253Z,96078.25
2022-10-19T23:08:18.199Z,96077.25
2022-10-19T23:11:04.200Z,96072.31
2022-10-19T23:13:50.317Z,96081.75
2022-10-19T23:16:36.170Z,96084.00
2022-10-19T23:19:22.090Z,96084.66
2022-10-19T23:22:07.929Z,96080.94
2022-10-19T23:24:53.730Z,96064.81
2022-10-19T23:27:39.653Z,96072.50
2022-10-19T23:30:25.502Z,96076.34
2022-10-19T23:33:17.028Z,96072.19
2022-10-19T23:36:08.366Z,96076.84
2022-10-19T23:38:55.298Z,96070.75
2022-10-19T23:41:41.303Z,96083.22
2022-10-19T23:44:26.990Z,96081.16
2022-10-19T23:47:12.843Z,96088.06
2022-10-19T23:49:58.485Z,96090.59
2022-10-19T23:52:44.392Z,96087.72
2022-10-19T23:55:30.230Z,96086.44
2022-10-19T23:58:16.096Z,96096.06
